FASB

Springbok Airport

Airport
ICAO code
FASB
IATA Code
SBU
Summary
ICAO Region
AFI
ICAO Territory
Location

, Northern Cape

Serving
Springbok
Elevation
2690 ft
Coordinates
29° 41' 22" S , 17° 56' 23" E
Metar
FASB 240754Z 25005KT 9999 FEW020 20/03 Q1016

Runways

Designator Length Width Surface Rops
10/28 1589 20 ASP No/No

Airport map

Aerial View

SKYbrary Partners:

Safety knowledge contributed by: